CheckWX is a tool to help pilots better visualize weather data.  It is not intended as a substitute for an official pre-flight weather briefing.

01:12:21 UTC

DAUB METAR
Biskra Airport
Biskra, Algeria
Current

1 hour ago

DAUB 200000Z 08005KT 9999 FEW040 SCT233 32/13 Q1014
Observed
Jul-20 @ 00:00 UTC
Wind
  • 080° at 5 KTS
Visibility
10,000+ meters
Flight Rules
VFR
Cloud Levels
  • Few at 4,000' AGL
  • Scattered at 23,300' AGL
Temperature
32°C / 90°F
Dewpoint
13°C / 55°F
Humidity
31%
Altimeter
29.94" Hg
Pressure
1013.92 hPa
Previous

2 hours ago

DAUB 192300Z 08005KT CAVOK 32/12 Q1014
Observed
Jul-19 @ 23:00 UTC
Wind
  • 080° at 5 KTS
Visibility
10,000+ meters
Flight Rules
VFR
Cloud Levels
  • Clear skies
Temperature
32°C / 90°F
Dewpoint
12°C / 54°F
Humidity
29%
Altimeter
29.94" Hg
Pressure
1013.92 hPa
Previous

3 hours ago

DAUB 192200Z 12004KT 9999 FEW040 33/13 Q1014
Observed
Jul-19 @ 22:00 UTC
Wind
  • 120° at 4 KTS
Visibility
10,000+ meters
Flight Rules
VFR
Cloud Levels
  • Few at 4,000' AGL
Temperature
33°C / 91°F
Dewpoint
13°C / 55°F
Humidity
30%
Altimeter
29.94" Hg
Pressure
1013.92 hPa